Time;durP1;ratioP1;P1;durP2;ratioP2;P2;SDS_P1;SDS_P2;PMS_P1;PMS_P2;Temp;Humidity;BMP_temperature;BMP_pressure;BME280_temperature;BME280_humidity;BME280_pressure;Samples;Min_cycle;Max_cycle;Signal;HPM_P1;HPM_P2
2022/02/23 00:00:44;;;;;;;12.60;2.33;;;;;;;6.44;81.53;102340.53;5020547;28;20044;-79
2022/02/23 00:03:10;;;;;;;10.93;1.98;;;;;;;6.42;81.62;102337.97;5038529;28;20217;-79
2022/02/23 00:05:36;;;;;;;18.33;2.47;;;;;;;6.44;81.63;102349.25;5038577;28;20088;-79
2022/02/23 00:08:01;;;;;;;10.57;1.80;;;;;;;6.43;81.73;102354.44;5039702;28;20064;-79
2022/02/23 00:10:27;;;;;;;13.63;2.28;;;;;;;6.42;81.74;102356.19;5020878;28;20045;-79
2022/02/23 00:12:52;;;;;;;15.05;2.53;;;;;;;6.39;81.54;102350.13;5016853;28;20730;-79
2022/02/23 00:15:17;;;;;;;18.10;3.08;;;;;;;6.40;81.34;102355.28;5010337;28;20034;-79
2022/02/23 00:17:44;;;;;;;15.27;2.55;;;;;;;6.40;81.46;102359.63;5038131;28;20057;-79
2022/02/23 00:20:10;;;;;;;22.73;2.95;;;;;;;6.40;81.90;102362.25;5037443;28;20083;-79
2022/02/23 00:22:36;;;;;;;10.40;2.33;;;;;;;6.39;81.56;102369.19;5038403;28;20214;-79
2022/02/23 00:25:02;;;;;;;11.15;2.35;;;;;;;6.38;81.60;102372.66;5036809;28;20041;-79
2022/02/23 00:27:28;;;;;;;21.48;2.60;;;;;;;6.36;81.70;102376.13;5037564;28;20075;-79
2022/02/23 00:29:54;;;;;;;11.55;1.70;;;;;;;6.34;81.68;102379.56;5037986;28;20041;-79
2022/02/23 00:32:20;;;;;;;6.78;2.15;;;;;;;6.36;81.94;102381.31;5021802;28;20103;-79
2022/02/23 00:34:46;;;;;;;11.90;2.92;;;;;;;6.33;81.80;102387.38;5038600;28;20106;-79
2022/02/23 00:37:12;;;;;;;9.52;2.25;;;;;;;6.33;82.04;102387.38;5036468;28;20317;-79
2022/02/23 00:39:38;;;;;;;18.42;2.58;;;;;;;6.32;82.09;102389.13;5019417;28;20041;-79
2022/02/23 00:42:03;;;;;;;14.60;2.13;;;;;;;6.34;82.23;102391.72;5037270;28;20371;-79
2022/02/23 00:44:29;;;;;;;10.48;1.88;;;;;;;6.36;82.28;102392.59;5019247;28;20044;-79
2022/02/23 00:46:55;;;;;;;11.07;3.03;;;;;;;6.34;82.14;102389.13;5038931;28;20325;-79
2022/02/23 00:49:20;;;;;;;8.35;1.92;;;;;;;6.34;82.40;102387.38;5021478;28;20080;-79
2022/02/23 00:51:46;;;;;;;10.95;2.13;;;;;;;6.33;82.30;102384.78;5021505;28;20037;-79
2022/02/23 00:54:11;;;;;;;10.20;1.83;;;;;;;6.30;81.95;102384.78;5022084;28;20056;-79
2022/02/23 00:56:37;;;;;;;12.25;2.65;;;;;;;6.28;81.56;102386.53;5039686;28;20065;-79
2022/02/23 00:59:02;;;;;;;14.68;2.13;;;;;;;6.28;81.37;102390.00;5021731;28;20115;-79
2022/02/23 01:01:28;;;;;;;12.50;2.30;;;;;;;6.26;81.40;102378.72;5039446;28;20084;-79
2022/02/23 01:03:53;;;;;;;13.70;2.03;;;;;;;6.25;81.17;102389.97;5021730;28;20037;-79
2022/02/23 01:06:19;;;;;;;15.68;2.42;;;;;;;6.26;81.10;102396.06;5021523;28;20255;-79
2022/02/23 01:08:44;;;;;;;13.45;1.70;;;;;;;6.23;80.93;102388.25;5039271;28;20040;-79
2022/02/23 01:11:10;;;;;;;15.68;2.60;;;;;;;6.23;80.69;102396.06;5020884;28;20034;-79
2022/02/23 01:13:35;;;;;;;6.50;1.38;;;;;;;6.21;80.86;102406.44;5039537;28;20030;-79
2022/02/23 01:16:00;;;;;;;8.70;1.73;;;;;;;6.21;81.25;102403.84;5038675;28;20065;-79
2022/02/23 01:18:26;;;;;;;15.75;1.95;;;;;;;6.22;81.26;102417.72;5021359;28;20045;-79
2022/02/23 01:20:52;;;;;;;13.25;2.33;;;;;;;6.18;81.03;102416.84;5021224;28;20040;-79
2022/02/23 01:23:18;;;;;;;13.88;1.80;;;;;;;6.18;81.27;102422.03;5038918;28;20280;-79
2022/02/23 01:25:43;;;;;;;10.95;1.55;;;;;;;6.19;81.54;102415.13;5039290;28;20102;-79
2022/02/23 01:28:09;;;;;;;14.65;2.15;;;;;;;6.17;81.50;102412.50;5021284;28;20245;-79
2022/02/23 01:30:35;;;;;;;7.72;2.00;;;;;;;6.17;81.32;102409.03;5021019;28;20041;-79
2022/02/23 01:33:02;;;;;;;25.52;3.22;;;;;;;6.15;81.69;102416.84;5038880;28;20060;-79
2022/02/23 01:35:27;;;;;;;9.57;1.77;;;;;;;6.16;82.06;102421.16;5038899;28;20288;-79
2022/02/23 01:37:53;;;;;;;15.00;2.28;;;;;;;6.17;82.02;102427.22;5038860;28;20039;-79
2022/02/23 01:40:20;;;;;;;12.63;2.35;;;;;;;6.13;81.91;102426.34;5037867;28;20103;-79
2022/02/23 01:42:45;;;;;;;12.98;2.83;;;;;;;6.17;82.09;102430.72;5038771;28;20331;-79
2022/02/23 01:45:11;;;;;;;15.10;2.07;;;;;;;6.15;82.33;102445.47;5019225;28;20379;-79
2022/02/23 01:47:37;;;;;;;21.30;3.00;;;;;;;6.13;82.30;102444.56;5020674;28;20063;-79
2022/02/23 01:50:04;;;;;;;8.93;2.40;;;;;;;6.13;82.77;102444.56;5020486;28;20083;-79
2022/02/23 01:52:29;;;;;;;12.88;2.42;;;;;;;6.11;82.88;102454.09;5003667;28;20041;-79
2022/02/23 01:54:55;;;;;;;11.75;2.50;;;;;;;6.10;82.76;102449.78;5038574;28;20044;-79
2022/02/23 01:57:21;;;;;;;13.15;2.78;;;;;;;6.09;83.03;102448.91;5038285;28;20051;-79
2022/02/23 01:59:48;;;;;;;13.27;2.17;;;;;;;6.07;82.96;102449.75;5020912;28;20037;-79
2022/02/23 02:02:14;;;;;;;12.68;1.67;;;;;;;6.05;83.11;102461.88;5020775;28;20072;-79
2022/02/23 02:04:39;;;;;;;19.10;2.38;;;;;;;6.00;83.25;102459.25;5004236;28;20033;-79
2022/02/23 02:07:04;;;;;;;10.55;2.58;;;;;;;6.05;83.23;102456.69;5038100;28;20321;-79
2022/02/23 02:09:30;;;;;;;13.82;2.75;;;;;;;6.03;83.28;102467.09;5038356;28;20053;-79
2022/02/23 02:11:55;;;;;;;22.60;3.22;;;;;;;6.01;83.44;102465.34;5019109;28;20285;-79
2022/02/23 02:14:21;;;;;;;15.65;2.58;;;;;;;5.96;83.69;102471.38;5020406;28;20033;-79
2022/02/23 02:16:46;;;;;;;18.85;2.63;;;;;;;5.98;83.58;102473.13;5037946;28;20057;-79
2022/02/23 02:19:12;;;;;;;16.38;2.83;;;;;;;5.95;83.62;102476.56;5037518;28;20278;-79
2022/02/23 02:21:57;;;;;;;17.15;2.65;;;;;;;5.91;83.98;102480.88;5038252;28;20041;-79
2022/02/23 02:24:25;;;;;;;6.68;1.45;;;;;;;5.90;83.86;102473.94;5038069;28;20040;-79
2022/02/23 02:26:50;;;;;;;15.87;3.23;;;;;;;5.86;83.60;102474.78;5019727;28;20036;-78
2022/02/23 02:29:16;;;;;;;15.52;2.33;;;;;;;5.83;83.71;102471.28;5020215;28;20037;-79
2022/02/23 02:31:41;;;;;;;9.02;1.75;;;;;;;5.84;83.88;102468.69;5020215;28;20025;-79
2022/02/23 02:34:07;;;;;;;14.93;2.95;;;;;;;5.83;83.80;102472.16;5037614;28;20305;-79
2022/02/23 02:36:32;;;;;;;10.55;1.75;;;;;;;5.84;83.91;102478.22;5020189;28;20241;-79
2022/02/23 02:38:58;;;;;;;7.28;2.10;;;;;;;5.81;84.02;102476.47;5019660;28;20049;-79
2022/02/23 02:41:23;;;;;;;14.68;1.98;;;;;;;5.77;83.88;102474.72;5037697;28;20051;-79
2022/02/23 02:43:48;;;;;;;16.75;2.58;;;;;;;5.73;83.87;102471.25;5037229;28;20049;-79
2022/02/23 02:46:14;;;;;;;8.02;1.92;;;;;;;5.74;84.06;102474.69;5003674;28;20332;-79
2022/02/23 02:48:40;;;;;;;10.75;1.90;;;;;;;5.74;84.05;102474.69;5019620;28;20048;-79
2022/02/23 02:51:06;;;;;;;11.95;2.53;;;;;;;5.72;83.95;102477.28;5019905;28;20088;-79
2022/02/23 02:53:32;;;;;;;9.07;2.17;;;;;;;5.74;84.06;102482.50;5037312;28;20095;-79
2022/02/23 02:55:57;;;;;;;8.38;1.77;;;;;;;5.72;84.03;102476.44;5019158;28;20228;-79
2022/02/23 02:58:23;;;;;;;10.05;1.58;;;;;;;5.72;84.00;102479.88;5019703;28;20291;-79
2022/02/23 03:00:48;;;;;;;6.03;1.15;;;;;;;5.74;84.32;102485.09;5019873;28;20105;-79
2022/02/23 03:03:13;;;;;;;6.63;1.30;;;;;;;5.79;84.53;102488.59;5037378;28;20041;-79
2022/02/23 03:05:39;;;;;;;5.35;1.33;;;;;;;5.84;84.78;102489.50;5019351;28;20114;-79
2022/02/23 03:08:04;;;;;;;3.38;1.17;;;;;;;5.90;84.82;102491.25;5019495;28;20229;-79
2022/02/23 03:10:30;;;;;;;6.18;1.17;;;;;;;5.92;84.73;102495.59;5019253;28;20067;-79
2022/02/23 03:12:55;;;;;;;6.53;1.52;;;;;;;5.94;84.88;102500.81;5037062;28;20236;-79
2022/02/23 03:15:21;;;;;;;4.45;1.13;;;;;;;5.95;84.93;102499.97;5036940;28;20104;-79
2022/02/23 03:17:46;;;;;;;3.17;1.20;;;;;;;5.96;84.61;102504.31;5036913;28;20042;-79
2022/02/23 03:20:12;;;;;;;9.32;1.90;;;;;;;5.92;83.87;102505.13;5036625;28;20049;-79
2022/02/23 03:22:37;;;;;;;7.30;2.17;;;;;;;5.84;83.39;102506.81;5036951;28;20268;-79
2022/02/23 03:25:04;;;;;;;4.95;1.85;;;;;;;5.76;83.30;102509.38;4986500;28;20029;-79
2022/02/23 03:27:30;;;;;;;11.90;2.38;;;;;;;5.68;83.32;102511.94;5036812;28;20321;-78
2022/02/23 03:29:55;;;;;;;11.32;2.13;;;;;;;5.59;83.66;102524.88;5018884;28;20043;-79
2022/02/23 03:32:20;;;;;;;10.43;2.13;;;;;;;5.55;84.27;102508.38;5036847;28;20032;-79
2022/02/23 03:34:46;;;;;;;9.90;2.40;;;;;;;5.55;84.33;102510.13;5019270;28;20119;-79
2022/02/23 03:37:12;;;;;;;9.13;2.00;;;;;;;5.55;84.76;102515.31;5036650;28;20109;-79
2022/02/23 03:39:37;;;;;;;10.80;2.13;;;;;;;5.53;84.58;102514.41;5037373;28;20044;-79
2022/02/23 03:42:03;;;;;;;13.23;2.50;;;;;;;5.51;84.36;102505.75;5002521;28;20086;-79
2022/02/23 03:44:28;;;;;;;5.35;1.30;;;;;;;5.48;84.68;102510.94;5018906;28;20049;-79
2022/02/23 03:46:54;;;;;;;8.50;1.58;;;;;;;5.46;84.61;102516.13;5010353;28;20218;-79
2022/02/23 03:49:19;;;;;;;8.13;1.98;;;;;;;5.44;84.54;102510.03;5028040;28;20045;-79
2022/02/23 03:51:45;;;;;;;8.23;2.25;;;;;;;5.41;84.60;102522.16;5037222;28;20065;-77
2022/02/23 03:54:10;;;;;;;12.55;2.35;;;;;;;5.39;84.81;102519.53;5019334;28;20104;-77
2022/02/23 03:56:38;;;;;;;6.30;1.88;;;;;;;5.38;84.80;102530.75;5020009;28;20289;-78
2022/02/23 03:59:08;;;;;;;8.23;1.83;;;;;;;5.38;84.93;102530.75;5036678;28;20373;-77
2022/02/23 04:01:35;;;;;;;2.83;1.52;;;;;;;5.39;85.10;102535.13;5019654;28;20329;-78
2022/02/23 04:04:01;;;;;;;3.70;1.33;;;;;;;5.44;85.38;102536.03;5036679;28;20099;-78
2022/02/23 04:06:27;;;;;;;5.72;1.33;;;;;;;5.46;85.41;102531.72;5035933;28;20037;-78
2022/02/23 04:08:53;;;;;;;3.80;1.13;;;;;;;5.49;85.15;102539.50;5036572;28;20033;-78
2022/02/23 04:11:18;;;;;;;6.63;1.40;;;;;;;5.52;85.19;102539.53;5018995;28;20037;-78
2022/02/23 04:13:44;;;;;;;3.28;1.58;;;;;;;5.55;85.27;102549.09;5036794;28;20240;-78
2022/02/23 04:16:10;;;;;;;6.38;1.58;;;;;;;5.58;85.18;102554.31;5017919;28;20096;-77
2022/02/23 04:18:35;;;;;;;2.83;1.52;;;;;;;5.57;84.97;102547.38;5018856;28;20041;-78
2022/02/23 04:21:01;;;;;;;4.40;1.48;;;;;;;5.55;84.41;102549.97;5018489;28;20036;-78
2022/02/23 04:23:26;;;;;;;5.47;1.25;;;;;;;5.51;84.08;102545.63;5018816;28;20229;-78
2022/02/23 04:25:51;;;;;;;6.40;1.92;;;;;;;5.46;83.95;102546.44;5036120;28;20041;-78
2022/02/23 04:28:17;;;;;;;8.60;1.77;;;;;;;5.41;83.81;102554.19;5036903;28;20041;-78
2022/02/23 04:30:42;;;;;;;11.32;2.28;;;;;;;5.34;83.62;102552.38;5019115;28;20056;-78
2022/02/23 04:33:08;;;;;;;10.68;2.03;;;;;;;5.31;83.63;102544.56;5036338;28;20328;-78
2022/02/23 04:35:33;;;;;;;7.40;2.28;;;;;;;5.24;83.70;102556.66;5036576;28;20030;-78
2022/02/23 04:37:58;;;;;;;9.60;2.00;;;;;;;5.17;83.84;102547.91;5018071;28;20041;-78
2022/02/23 04:40:24;;;;;;;5.50;2.00;;;;;;;5.14;83.89;102545.28;5018664;28;20224;-78
2022/02/23 04:42:49;;;;;;;7.65;2.00;;;;;;;5.12;83.86;102543.53;5020258;28;20033;-78
2022/02/23 04:45:14;;;;;;;6.68;1.80;;;;;;;5.13;83.80;102545.25;5039853;28;20198;-78
2022/02/23 04:47:40;;;;;;;3.55;1.10;;;;;;;5.12;84.22;102547.00;5021854;28;20375;-78
2022/02/23 04:50:05;;;;;;;13.02;2.45;;;;;;;5.12;84.17;102544.41;5005655;28;20259;-78
2022/02/23 04:52:31;;;;;;;7.32;1.60;;;;;;;5.18;84.45;102551.38;5039836;28;20047;-78
2022/02/23 04:54:57;;;;;;;7.80;1.70;;;;;;;5.18;84.37;102541.88;5039572;28;20087;-78
2022/02/23 04:57:23;;;;;;;2.88;1.20;;;;;;;5.21;84.19;102545.34;5039445;28;20273;-78
2022/02/23 04:59:49;;;;;;;2.60;1.27;;;;;;;5.24;84.39;102547.97;5021707;28;20040;-78
2022/02/23 05:02:15;;;;;;;4.68;1.30;;;;;;;5.28;84.61;102547.16;5021935;28;20033;-78
2022/02/23 05:04:40;;;;;;;2.50;0.90;;;;;;;5.30;84.68;102550.63;5022197;28;20105;-78
2022/02/23 05:07:06;;;;;;;3.55;1.08;;;;;;;5.31;84.50;102552.34;5039282;28;20090;-78
2022/02/23 05:09:32;;;;;;;2.13;1.08;;;;;;;5.29;84.33;102554.94;5021904;28;20041;-78
2022/02/23 05:11:57;;;;;;;4.38;1.52;;;;;;;5.29;84.09;102562.72;5038785;28;20333;-78
2022/02/23 05:14:22;;;;;;;4.18;1.10;;;;;;;5.26;83.77;102565.31;4988601;28;20360;-78
2022/02/23 05:16:49;;;;;;;2.75;1.08;;;;;;;5.26;83.94;102567.91;5021426;28;20340;-78
2022/02/23 05:19:15;;;;;;;3.45;1.23;;;;;;;5.24;83.92;102567.03;5039352;28;20040;-78
2022/02/23 05:21:40;;;;;;;6.78;1.48;;;;;;;5.23;83.93;102569.63;5039370;28;20037;-78
2022/02/23 05:24:05;;;;;;;5.72;1.65;;;;;;;5.23;83.94;102574.81;5020620;28;20339;-78
2022/02/23 05:26:31;;;;;;;4.97;1.50;;;;;;;5.22;83.96;102573.94;5005151;28;20076;-78
2022/02/23 05:28:56;;;;;;;3.72;1.70;;;;;;;5.21;84.00;102574.78;5021277;28;20045;-77
2022/02/23 05:31:22;;;;;;;4.07;1.52;;;;;;;5.21;84.01;102577.38;5021354;28;20275;-78
2022/02/23 05:33:47;;;;;;;6.15;1.52;;;;;;;5.20;83.88;102578.22;5038463;28;20037;-78
2022/02/23 05:36:12;;;;;;;6.00;1.40;;;;;;;5.19;84.20;102579.97;5038697;28;20080;-78
2022/02/23 05:38:38;;;;;;;5.13;1.45;;;;;;;5.18;83.81;102587.75;5039233;28;20053;-78
2022/02/23 05:41:03;;;;;;;3.90;1.20;;;;;;;5.16;83.91;102579.06;5021190;28;20361;-78
2022/02/23 05:43:31;;;;;;;6.82;1.90;;;;;;;5.14;83.83;102573.00;5038812;28;20041;-78
2022/02/23 05:45:57;;;;;;;2.88;1.20;;;;;;;5.14;83.87;102578.19;5020458;28;20036;-78
2022/02/23 05:48:22;;;;;;;5.40;1.63;;;;;;;5.14;84.20;102573.84;5037889;28;20061;-78
2022/02/23 05:50:48;;;;;;;4.35;1.10;;;;;;;5.14;84.16;102573.84;5004944;28;20432;-77
2022/02/23 05:53:13;;;;;;;4.82;1.27;;;;;;;5.14;84.16;102578.19;5038009;28;20045;-78
2022/02/23 05:55:39;;;;;;;4.70;1.27;;;;;;;5.13;84.14;102590.31;5038161;28;20033;-78
2022/02/23 05:58:05;;;;;;;5.80;2.00;;;;;;;5.14;84.32;102588.56;5038436;28;20383;-78
2022/02/23 06:00:30;;;;;;;13.82;2.25;;;;;;;5.13;84.36;102585.13;5038714;28;20047;-78
2022/02/23 06:02:56;;;;;;;9.00;2.08;;;;;;;5.11;84.39;102584.22;5037117;28;20033;-77
2022/02/23 06:05:21;;;;;;;9.02;1.50;;;;;;;5.12;84.77;102580.75;5037608;28;20178;-78
2022/02/23 06:07:47;;;;;;;6.40;1.90;;;;;;;5.14;84.89;102585.97;5038764;28;20064;-78
2022/02/23 06:10:12;;;;;;;5.00;1.52;;;;;;;5.15;85.13;102593.78;5037781;28;20044;-78
2022/02/23 06:12:38;;;;;;;7.75;1.90;;;;;;;5.14;85.29;102593.78;5020133;28;20071;-78
2022/02/23 06:15:03;;;;;;;10.38;2.10;;;;;;;5.12;85.53;102593.75;5037894;28;20033;-78
2022/02/23 06:17:29;;;;;;;14.75;1.90;;;;;;;5.09;85.33;102587.66;5001424;28;20061;-78
2022/02/23 06:19:54;;;;;;;15.10;2.67;;;;;;;5.05;85.69;102591.09;5036497;28;20063;-78
2022/02/23 06:22:20;;;;;;;13.70;2.50;;;;;;;5.03;85.89;102588.47;5019608;28;20092;-78
2022/02/23 06:24:45;;;;;;;8.80;1.67;;;;;;;5.01;85.95;102584.97;5017987;28;20044;-78
2022/02/23 06:27:13;;;;;;;10.63;1.83;;;;;;;5.01;86.36;102587.59;5018162;28;20340;-78
2022/02/23 06:29:39;;;;;;;9.38;2.00;;;;;;;5.05;86.38;102591.09;5037282;28;20116;-78
2022/02/23 06:32:06;;;;;;;5.72;1.48;;;;;;;5.07;86.59;102598.03;5036466;28;20333;-78
2022/02/23 06:34:33;;;;;;;6.93;2.22;;;;;;;5.11;86.58;102593.72;5035023;28;20033;-78
2022/02/23 06:37:02;;;;;;;4.35;1.25;;;;;;;5.13;86.52;102597.22;5035548;28;20044;-78
2022/02/23 06:39:32;;;;;;;6.53;1.58;;;;;;;5.14;86.78;102585.97;5036234;28;20052;-78
2022/02/23 06:42:00;;;;;;;4.20;1.52;;;;;;;5.16;86.85;102590.31;5018246;28;20033;-78
2022/02/23 06:44:26;;;;;;;3.33;1.00;;;;;;;5.19;86.69;102587.75;5036340;28;20041;-78
2022/02/23 06:46:51;;;;;;;2.53;1.20;;;;;;;5.23;86.93;102590.41;5034917;28;20049;-78
2022/02/23 06:49:17;;;;;;;5.00;1.50;;;;;;;5.25;86.96;102593.88;5018568;28;20041;-78
2022/02/23 06:51:46;;;;;;;3.65;1.30;;;;;;;5.26;86.95;102593.91;5036405;28;20079;-78
2022/02/23 06:54:12;;;;;;;;;;;;;;;5.28;87.00;102596.50;5036055;28;20103;-78
2022/02/23 06:56:37;;;;;;;6.35;1.45;;;;;;;5.28;86.97;102592.19;5035760;28;19988;-78
2022/02/23 06:59:03;;;;;;;5.15;1.40;;;;;;;5.30;86.98;102592.19;5017277;28;20372;-78
2022/02/23 07:01:29;;;;;;;7.15;1.98;;;;;;;5.26;87.10;102590.44;4997962;28;20097;-78
2022/02/23 07:03:54;;;;;;;2.25;1.20;;;;;;;5.27;87.27;102585.22;5017801;28;20345;-78
2022/02/23 07:06:20;;;;;;;4.55;1.50;;;;;;;5.29;87.27;102583.50;5017469;28;20300;-78
2022/02/23 07:08:48;;;;;;;10.10;1.88;;;;;;;5.30;87.44;102584.41;5016734;28;20249;-78
2022/02/23 07:11:14;;;;;;;4.55;0.95;;;;;;;5.31;87.50;102576.63;5017262;28;20037;-78
2022/02/23 07:13:40;;;;;;;2.85;0.98;;;;;;;5.32;87.58;102583.56;5017339;28;20060;-78
2022/02/23 07:16:05;;;;;;;7.75;1.70;;;;;;;5.31;87.48;102588.72;5034593;28;20053;-78
2022/02/23 07:18:31;;;;;;;2.95;1.00;;;;;;;5.33;87.66;102592.22;5034693;28;20076;-78
2022/02/23 07:20:56;;;;;;;9.10;1.63;;;;;;;5.34;87.60;102596.56;5035044;28;20034;-78
2022/02/23 07:23:22;;;;;;;6.78;2.25;;;;;;;5.33;87.71;102595.69;5017125;28;20080;-78
2022/02/23 07:25:51;;;;;;;4.57;1.42;;;;;;;5.34;87.82;102602.63;5034732;28;20386;-78
2022/02/23 07:28:17;;;;;;;5.15;1.45;;;;;;;5.36;87.82;102607.84;5016740;28;20411;-78
2022/02/23 07:30:43;;;;;;;11.75;2.70;;;;;;;5.32;87.80;102600.88;5017233;28;20037;-78
2022/02/23 07:33:10;;;;;;;3.40;1.65;;;;;;;5.33;87.77;102606.09;5027467;28;20029;-78
2022/02/23 07:35:36;;;;;;;7.78;1.83;;;;;;;5.36;88.08;102611.28;5034444;28;20113;-78
2022/02/23 07:38:05;;;;;;;11.73;2.40;;;;;;;5.38;87.94;102609.59;5033820;28;20409;-78
2022/02/23 07:40:30;;;;;;;;;;;;;;;5.38;88.05;102612.22;5033973;28;20345;-78
2022/02/23 07:42:56;;;;;;;3.92;1.42;;;;;;;5.40;88.09;102612.19;5016019;28;19955;-78
2022/02/23 07:45:21;;;;;;;4.38;1.50;;;;;;;5.42;88.03;102613.09;5000299;28;20048;-78
2022/02/23 07:47:47;;;;;;;5.20;1.67;;;;;;;5.41;88.12;102611.34;5034443;28;20096;-78
2022/02/23 07:50:15;;;;;;;9.38;2.03;;;;;;;5.43;88.11;102622.63;5016274;28;20064;-78
2022/02/23 07:52:42;;;;;;;3.28;1.35;;;;;;;5.44;88.21;102620.88;5017259;28;20037;-78
2022/02/23 07:55:08;;;;;;;4.78;2.20;;;;;;;5.44;88.29;102620.88;5035927;28;20229;-78
2022/02/23 07:57:34;;;;;;;4.00;1.70;;;;;;;5.46;88.40;102627.00;5029601;28;20033;-78
2022/02/23 07:59:59;;;;;;;3.95;1.73;;;;;;;5.46;88.41;102619.19;5037648;28;20048;-78
2022/02/23 08:02:30;;;;;;;7.47;2.63;;;;;;;5.47;88.48;102623.53;5037748;28;20033;-78
2022/02/23 08:04:55;;;;;;;5.75;1.90;;;;;;;5.47;88.31;102623.53;5042615;28;20045;-78
2022/02/23 08:07:21;;;;;;;4.72;2.13;;;;;;;5.48;88.59;102620.09;5037290;28;20123;-78
2022/02/23 08:09:47;;;;;;;7.80;2.83;;;;;;;5.49;88.61;102614.00;5034272;28;20101;-78
2022/02/23 08:12:13;;;;;;;3.17;1.75;;;;;;;5.49;88.52;102620.06;5033928;28;20051;-78
2022/02/23 08:14:39;;;;;;;6.97;2.00;;;;;;;5.49;88.56;102616.59;5034249;28;20044;-78
2022/02/23 08:19:49;;;;;;;14.23;2.25;;;;;;;5.48;88.74;102607.09;5017835;28;20078;-78
2022/02/23 08:22:15;;;;;;;7.70;1.90;;;;;;;5.50;88.72;102611.44;5037223;28;20029;-78
2022/02/23 08:24:46;;;;;;;15.38;3.30;;;;;;;5.50;88.93;102608.84;5034637;28;20065;-78
2022/02/23 08:27:15;;;;;;;5.03;1.83;;;;;;;5.52;88.74;102609.72;5014706;28;20329;-78
2022/02/23 08:29:41;;;;;;;3.90;1.45;;;;;;;5.54;89.12;102609.72;5019983;28;20225;-78
2022/02/23 08:32:09;;;;;;;8.40;2.28;;;;;;;5.55;89.10;102609.75;5036932;28;20048;-78
2022/02/23 08:34:35;;;;;;;5.93;2.25;;;;;;;5.56;89.20;102616.66;5033334;28;20084;-78
2022/02/23 08:37:01;;;;;;;5.82;1.88;;;;;;;5.58;89.26;102609.78;5019512;28;20033;-78
2022/02/23 08:39:28;;;;;;;7.47;2.60;;;;;;;5.58;89.27;102598.50;5034868;28;20104;-78
2022/02/23 08:41:53;;;;;;;20.67;3.10;;;;;;;5.58;89.21;102611.50;5037272;28;20063;-78
2022/02/23 08:44:19;;;;;;;10.63;3.45;;;;;;;5.60;89.40;102614.09;5016452;28;20100;-78
2022/02/23 08:46:45;;;;;;;9.05;2.47;;;;;;;5.62;89.30;102612.38;5027687;28;20060;-78
2022/02/23 08:49:12;;;;;;;6.28;2.22;;;;;;;5.62;89.34;102612.38;5036934;28;20359;-78
2022/02/23 08:51:39;;;;;;;10.35;2.78;;;;;;;5.65;89.32;102605.47;5036371;28;20040;-78
2022/02/23 08:54:05;;;;;;;16.83;3.40;;;;;;;5.66;89.39;102619.38;5036344;28;20073;-78
2022/02/23 08:56:31;;;;;;;16.98;3.17;;;;;;;5.67;89.53;102611.56;5038681;28;20048;-78
2022/02/23 08:58:57;;;;;;;9.43;2.67;;;;;;;5.69;89.35;102620.25;5031363;28;20037;-78
2022/02/23 09:01:22;;;;;;;16.55;3.15;;;;;;;5.71;89.56;102618.56;5029539;28;20107;-78
2022/02/23 09:03:48;;;;;;;11.95;3.30;;;;;;;5.71;89.66;102615.94;5008908;28;20049;-78
2022/02/23 09:06:14;;;;;;;8.45;2.95;;;;;;;5.74;89.56;102620.28;5010783;28;21219;-78
2022/02/23 09:08:39;;;;;;;19.27;3.20;;;;;;;5.76;89.68;102616.84;5019934;28;20337;-78
2022/02/23 09:11:05;;;;;;;11.95;2.83;;;;;;;5.78;89.54;102624.66;5039537;28;20115;-78
2022/02/23 09:13:30;;;;;;;13.25;3.38;;;;;;;5.81;89.62;102614.28;5034090;28;20049;-78
2022/02/23 09:15:56;;;;;;;13.40;3.38;;;;;;;5.83;89.59;102622.09;5027027;28;20037;-78
2022/02/23 09:18:22;;;;;;;8.80;2.40;;;;;;;5.85;89.52;102613.44;5017141;28;20049;-78
2022/02/23 09:20:47;;;;;;;11.35;3.08;;;;;;;5.86;89.62;102615.19;5015935;28;20371;-78
2022/02/23 09:23:15;;;;;;;11.82;3.45;;;;;;;5.87;89.76;102619.50;5014239;28;20276;-78
2022/02/23 09:25:40;;;;;;;13.00;3.70;;;;;;;5.90;89.90;102623.88;5010099;28;20257;-78
2022/02/23 09:28:05;;;;;;;14.15;4.00;;;;;;;5.91;89.96;102618.69;5033605;28;20231;-78
2022/02/23 09:30:31;;;;;;;15.50;3.83;;;;;;;5.93;89.99;102618.69;5003682;28;20241;-78
2022/02/23 09:32:56;;;;;;;12.45;3.30;;;;;;;5.96;89.80;102613.56;5017287;28;20029;-78
2022/02/23 09:35:22;;;;;;;11.98;3.00;;;;;;;5.99;89.95;102620.53;5030966;28;20423;-78
2022/02/23 09:37:48;;;;;;;14.52;3.63;;;;;;;6.01;90.01;102617.06;5030119;28;20060;-78
2022/02/23 09:40:15;;;;;;;8.27;3.47;;;;;;;6.03;90.04;102614.47;5035329;28;20044;-78
2022/02/23 09:42:42;;;;;;;15.95;4.10;;;;;;;6.05;90.02;102616.22;5002452;28;20044;-78
2022/02/23 09:45:08;;;;;;;8.82;4.07;;;;;;;6.06;90.01;102614.50;5036044;28;20044;-78
2022/02/23 09:47:34;;;;;;;17.48;4.80;;;;;;;6.09;90.03;102611.91;5035922;28;20034;-78
2022/02/23 09:50:01;;;;;;;17.15;5.68;;;;;;;6.12;90.20;102617.13;5035917;28;20033;-78
2022/02/23 09:52:26;;;;;;;14.23;4.43;;;;;;;6.15;90.02;102614.56;5036034;28;20124;-78
2022/02/23 09:54:56;;;;;;;11.80;4.15;;;;;;;6.17;89.77;102609.34;5017958;28;20052;-78
2022/02/23 09:57:22;;;;;;;16.08;4.55;;;;;;;6.21;89.93;102608.53;5036271;28;20029;-78
2022/02/23 09:59:47;;;;;;;18.38;4.85;;;;;;;6.24;90.18;102609.41;5034383;28;20064;-78
2022/02/23 10:02:13;;;;;;;19.48;5.10;;;;;;;6.27;90.22;102612.00;5017068;28;20030;-78
2022/02/23 10:04:40;;;;;;;13.43;3.80;;;;;;;6.30;89.88;102612.03;5018077;28;20111;-78
2022/02/23 10:07:07;;;;;;;13.13;3.90;;;;;;;6.35;89.92;102612.06;5035205;28;20140;-78
2022/02/23 10:09:57;;;;;;;24.83;4.65;;;;;;;6.40;89.65;102610.34;5017453;28;20213;-78
2022/02/23 10:12:27;;;;;;;16.95;5.82;;;;;;;6.43;89.77;102612.09;5033896;28;20502;-78
2022/02/23 10:15:17;;;;;;;17.52;4.40;;;;;;;6.47;89.38;102614.72;5034449;28;20224;-78
2022/02/23 10:17:46;;;;;;;19.08;4.68;;;;;;;6.49;89.25;102609.50;5033981;28;20063;-78
2022/02/23 10:20:27;;;;;;;15.38;3.53;;;;;;;6.53;88.60;102614.75;5034440;28;20249;-78
2022/02/23 10:23:03;;;;;;;14.20;3.88;;;;;;;6.57;88.82;102612.16;5030096;28;20177;-77
2022/02/23 10:25:35;;;;;;;17.95;3.90;;;;;;;6.62;88.91;102613.03;5034703;28;20045;-78
2022/02/23 10:28:09;;;;;;;16.27;4.40;;;;;;;6.65;88.62;102603.50;5035291;28;20061;-78
2022/02/23 10:30:44;;;;;;;15.82;3.58;;;;;;;6.71;88.31;102605.25;5035945;28;20340;-78
2022/02/23 10:33:39;;;;;;;10.48;3.38;;;;;;;6.73;87.52;102612.25;5017344;28;20037;-78
2022/02/23 10:36:11;;;;;;;12.35;3.60;;;;;;;6.77;87.55;102605.31;5033289;28;20184;-77
2022/02/23 10:38:39;;;;;;;16.70;3.30;;;;;;;6.80;87.64;102605.28;5034446;28;20053;-78
2022/02/23 10:41:08;;;;;;;19.83;4.20;;;;;;;6.85;87.27;102605.31;5029426;28;20041;-78
2022/02/23 10:43:43;;;;;;;14.87;3.70;;;;;;;6.90;86.35;102614.88;5041329;28;20102;-78
2022/02/23 10:46:10;;;;;;;11.30;3.50;;;;;;;6.92;86.67;102605.34;5043898;28;20379;-78
2022/02/23 10:48:44;;;;;;;16.85;3.20;;;;;;;6.96;86.56;102605.34;5039073;28;20379;-79
2022/02/23 10:51:32;;;;;;;15.93;3.60;;;;;;;6.98;85.89;102601.88;5034885;28;20052;-78
2022/02/23 10:54:09;;;;;;;13.38;3.10;;;;;;;7.02;86.02;102601.03;5033667;28;20044;-78
2022/02/23 10:56:39;;;;;;;10.50;3.75;;;;;;;7.04;85.70;102612.34;5032479;28;20051;-78
2022/02/23 10:59:06;;;;;;;14.20;3.88;;;;;;;7.06;84.98;102605.38;5016986;28;20033;-78
2022/02/23 11:01:33;;;;;;;13.63;3.13;;;;;;;7.08;84.73;102606.25;5034402;28;20033;-78
2022/02/23 11:03:59;;;;;;;14.00;3.05;;;;;;;7.09;83.73;102591.47;5034039;28;20044;-78
2022/02/23 11:06:25;;;;;;;10.63;2.85;;;;;;;7.09;84.03;102605.41;5036433;28;20305;-78
2022/02/23 11:08:52;;;;;;;13.63;2.55;;;;;;;7.16;83.13;102597.59;5015217;28;20112;-78
2022/02/23 11:11:18;;;;;;;14.05;3.08;;;;;;;7.21;82.30;102593.25;5023047;28;20029;-78
2022/02/23 11:13:44;;;;;;;11.20;2.00;;;;;;;7.26;81.32;102583.72;5043067;28;20052;-78
2022/02/23 11:16:12;;;;;;;14.80;2.70;;;;;;;7.27;82.00;102585.44;5035466;28;20486;-78
2022/02/23 11:18:41;;;;;;;19.35;2.80;;;;;;;7.30;82.37;102581.09;5035324;28;20056;-78
2022/02/23 11:21:07;;;;;;;;;;;;;;;7.32;82.01;102588.91;5036329;28;20356;-78
2022/02/23 11:23:34;;;;;;;9.45;2.20;;;;;;;7.39;81.17;102579.38;5034502;28;19955;-78
2022/02/23 11:26:00;;;;;;;12.60;2.60;;;;;;;7.41;80.76;102578.50;5033000;28;20067;-78
2022/02/23 11:28:29;;;;;;;7.65;2.03;;;;;;;7.40;80.99;102584.56;5018320;28;20104;-78